createdAt,value
2017-08-26T00:00:34.560Z,10.80
2017-08-26T00:03:26.149Z,11.00
2017-08-26T00:05:57.419Z,12.10
2017-08-26T00:08:26.404Z,11.60
2017-08-26T00:11:02.962Z,11.93
2017-08-26T00:19:25.021Z,11.87
2017-08-26T00:21:54.261Z,10.97
2017-08-26T00:24:22.474Z,11.83
2017-08-26T00:26:51.628Z,10.87
2017-08-26T00:29:19.794Z,11.37
2017-08-26T00:31:47.928Z,10.77
2017-08-26T00:34:17.991Z,11.77
2017-08-26T00:36:49.645Z,11.73
2017-08-26T00:39:17.818Z,11.33
2017-08-26T00:41:45.970Z,11.83
2017-08-26T00:44:15.295Z,9.10
2017-08-26T00:46:50.838Z,10.00
2017-08-26T00:49:24.940Z,10.60
2017-08-26T00:51:56.238Z,14.70
2017-08-26T00:54:24.676Z,12.83
2017-08-26T00:56:59.108Z,9.30
2017-08-26T00:59:27.545Z,8.50
2017-08-26T01:01:57.519Z,8.60
2017-08-26T01:04:26.637Z,9.37
2017-08-26T01:07:00.587Z,11.93
2017-08-26T01:09:29.397Z,9.50
2017-08-26T01:11:57.704Z,8.83
2017-08-26T01:14:25.831Z,10.03
2017-08-26T01:16:55.077Z,9.20
2017-08-26T01:19:23.744Z,10.03
2017-08-26T01:21:52.103Z,10.03
2017-08-26T01:24:20.720Z,8.83
2017-08-26T01:26:50.127Z,9.70
2017-08-26T01:29:19.358Z,9.80
2017-08-26T01:31:48.606Z,9.80
2017-08-26T01:34:16.839Z,10.23
2017-08-26T01:36:47.548Z,10.93
2017-08-26T01:39:15.860Z,8.33
2017-08-26T01:41:44.055Z,10.13
2017-08-26T01:44:12.303Z,10.00
2017-08-26T01:46:40.467Z,9.00
2017-08-26T01:49:10.789Z,9.10
2017-08-26T01:51:38.928Z,9.93
2017-08-26T01:54:07.188Z,9.93
2017-08-26T01:56:35.351Z,8.83
2017-08-26T01:59:03.594Z,10.03
2017-08-26T02:01:31.799Z,8.77
2017-08-26T02:04:00.088Z,9.30
2017-08-26T02:06:35.905Z,8.57
2017-08-26T02:09:04.283Z,9.57
2017-08-26T02:11:32.471Z,10.83
2017-08-26T02:14:00.638Z,9.40
2017-08-26T02:16:28.851Z,13.07
2017-08-26T02:18:56.953Z,9.07
2017-08-26T02:21:25.770Z,8.73
2017-08-26T02:23:55.502Z,9.20
2017-08-26T02:26:24.797Z,10.30
2017-08-26T02:28:56.393Z,9.77
2017-08-26T02:31:29.357Z,8.17
2017-08-26T02:33:57.541Z,10.43
2017-08-26T02:36:27.013Z,9.33
2017-08-26T02:38:55.649Z,11.20
2017-08-26T02:41:24.641Z,9.73
2017-08-26T02:43:52.906Z,8.50
2017-08-26T02:46:21.137Z,10.40
2017-08-26T02:48:49.388Z,9.30
2017-08-26T02:51:19.923Z,8.40
2017-08-26T02:53:48.145Z,8.43
2017-08-26T02:56:26.548Z,7.80
2017-08-26T02:58:54.863Z,8.77
2017-08-26T03:01:23.404Z,7.70
2017-08-26T03:03:56.534Z,8.00
2017-08-26T03:06:25.634Z,8.50
2017-08-26T03:08:53.759Z,8.10
2017-08-26T03:11:32.904Z,8.60
2017-08-26T03:14:01.206Z,9.47
2017-08-26T03:16:30.359Z,9.67
2017-08-26T03:18:58.589Z,10.63
2017-08-26T03:21:26.924Z,8.47
2017-08-26T03:23:55.313Z,7.57
2017-08-26T03:26:25.694Z,9.60
2017-08-26T03:28:53.979Z,9.07
2017-08-26T03:31:22.515Z,8.27
2017-08-26T03:39:44.831Z,6.97
2017-08-26T03:42:13.065Z,8.87
2017-08-26T03:44:41.268Z,8.73
2017-08-26T03:47:26.873Z,10.40
2017-08-26T03:49:56.640Z,7.73
2017-08-26T03:52:28.481Z,8.63
2017-08-26T03:54:58.912Z,8.17
2017-08-26T03:57:27.095Z,8.07
2017-08-26T03:59:56.215Z,9.87
2017-08-26T04:02:28.686Z,9.37
2017-08-26T04:05:04.054Z,8.80
2017-08-26T04:07:34.438Z,10.67
2017-08-26T04:10:04.501Z,9.30
2017-08-26T04:12:38.580Z,10.90
2017-08-26T04:15:28.010Z,11.00
2017-08-26T04:17:57.078Z,13.90
2017-08-26T04:20:25.308Z,11.13
2017-08-26T04:22:54.371Z,10.00
2017-08-26T04:29:12.886Z,9.60
2017-08-26T04:31:49.347Z,9.70
2017-08-26T04:34:27.645Z,9.57
2017-08-26T04:36:59.615Z,11.53
2017-08-26T04:39:29.794Z,9.43
2017-08-26T04:42:06.190Z,8.43
2017-08-26T04:44:55.279Z,8.90
2017-08-26T04:47:27.540Z,8.90
2017-08-26T04:49:59.842Z,7.87
2017-08-26T04:52:29.038Z,6.70
2017-08-26T04:54:57.245Z,7.17
2017-08-26T04:57:25.522Z,6.53
2017-08-26T04:59:53.820Z,10.00
2017-08-26T05:02:25.844Z,8.90
2017-08-26T05:04:54.068Z,9.20
2017-08-26T05:07:22.270Z,8.13
2017-08-26T05:09:50.463Z,8.20
2017-08-26T05:12:18.687Z,8.13
2017-08-26T05:15:01.755Z,7.97
2017-08-26T05:17:29.942Z,8.83
2017-08-26T05:19:58.164Z,12.33
2017-08-26T05:22:26.880Z,11.90
2017-08-26T05:24:55.238Z,8.53
2017-08-26T05:27:23.490Z,8.17
2017-08-26T05:29:52.035Z,8.03
2017-08-26T05:32:20.234Z,7.73
2017-08-26T05:34:49.341Z,8.40
2017-08-26T05:37:17.591Z,8.10
2017-08-26T05:39:50.919Z,11.00
2017-08-26T05:42:32.156Z,7.67
2017-08-26T05:45:00.442Z,8.00
2017-08-26T05:47:29.033Z,9.37
2017-08-26T05:50:37.094Z,8.77
2017-08-26T05:53:05.352Z,7.90
2017-08-26T06:01:45.440Z,10.33
2017-08-26T06:04:14.444Z,5.20
2017-08-26T06:06:49.141Z,5.60
2017-08-26T06:09:34.138Z,7.03
2017-08-26T06:12:03.170Z,6.63
2017-08-26T06:14:39.904Z,5.37
2017-08-26T06:17:08.094Z,7.87
2017-08-26T06:19:37.095Z,4.70
2017-08-26T06:22:05.477Z,6.33
2017-08-26T06:24:34.955Z,5.93
2017-08-26T06:27:07.593Z,8.43
2017-08-26T06:30:00.269Z,5.70
2017-08-26T06:32:35.561Z,6.47
2017-08-26T06:35:05.975Z,5.60
2017-08-26T06:37:36.156Z,6.07
2017-08-26T06:40:04.494Z,6.00
2017-08-26T06:42:32.651Z,7.37
2017-08-26T06:45:00.948Z,8.63
2017-08-26T06:47:34.447Z,4.60
2017-08-26T06:50:03.809Z,5.00
2017-08-26T06:52:32.096Z,7.63
2017-08-26T06:55:06.579Z,6.70
2017-08-26T06:57:38.585Z,7.70
2017-08-26T07:00:08.824Z,7.30
2017-08-26T07:02:56.684Z,7.87
2017-08-26T07:12:54.040Z,7.40
2017-08-26T07:15:22.492Z,8.17
2017-08-26T07:17:50.750Z,9.30
2017-08-26T07:20:26.984Z,6.87
2017-08-26T07:22:57.533Z,8.10
2017-08-26T07:25:45.994Z,4.97
2017-08-26T07:28:15.393Z,5.90
2017-08-26T07:30:46.396Z,5.27
2017-08-26T07:33:19.043Z,5.50
2017-08-26T07:35:51.829Z,4.73
2017-08-26T07:38:20.114Z,5.63
2017-08-26T07:40:48.896Z,4.50
2017-08-26T07:43:19.014Z,5.00
2017-08-26T07:45:57.750Z,3.00
2017-08-26T07:48:27.215Z,2.90
2017-08-26T07:51:02.432Z,7.00
2017-08-26T07:53:35.474Z,5.93
2017-08-26T07:56:06.795Z,4.23
2017-08-26T07:58:35.615Z,3.87
2017-08-26T08:01:04.995Z,5.27
2017-08-26T08:03:33.269Z,3.37
2017-08-26T08:06:14.311Z,5.97
2017-08-26T08:08:43.838Z,3.80
2017-08-26T08:11:12.131Z,6.30
2017-08-26T08:13:44.735Z,3.30
2017-08-26T08:16:14.283Z,6.23
2017-08-26T08:18:44.030Z,5.67
2017-08-26T08:21:13.352Z,4.10
2017-08-26T08:23:43.704Z,3.27
2017-08-26T08:26:17.546Z,3.97
2017-08-26T08:28:53.879Z,5.23
2017-08-26T08:31:29.022Z,3.67
2017-08-26T08:33:57.384Z,2.70
2017-08-26T08:36:26.765Z,2.37
2017-08-26T08:38:56.949Z,2.70
2017-08-26T08:41:29.445Z,5.37
2017-08-26T08:43:57.850Z,3.30
2017-08-26T08:46:28.108Z,2.73
2017-08-26T08:49:16.210Z,4.90
2017-08-26T08:51:44.882Z,6.33
2017-08-26T08:54:13.892Z,4.80
2017-08-26T08:56:42.076Z,4.10
2017-08-26T08:59:24.112Z,2.67
2017-08-26T09:01:57.530Z,4.50
2017-08-26T09:04:26.644Z,4.83
2017-08-26T09:06:55.895Z,4.30
2017-08-26T09:09:25.662Z,3.30
2017-08-26T09:14:56.459Z,3.80
2017-08-26T09:17:25.413Z,2.90
2017-08-26T09:19:54.117Z,3.90
2017-08-26T09:22:23.247Z,4.97
2017-08-26T09:27:57.710Z,3.90
2017-08-26T09:30:26.896Z,5.33
2017-08-26T09:32:56.151Z,5.57
2017-08-26T09:35:26.476Z,4.20
2017-08-26T09:38:00.175Z,4.20
2017-08-26T09:40:28.915Z,5.97
2017-08-26T09:43:00.383Z,6.23
2017-08-26T09:45:49.557Z,4.20
2017-08-26T09:48:24.350Z,7.27
2017-08-26T09:57:26.686Z,5.43
2017-08-26T09:59:56.398Z,4.90
2017-08-26T10:02:28.221Z,5.30
2017-08-26T10:04:56.496Z,4.57
2017-08-26T10:07:25.941Z,4.83
2017-08-26T10:09:54.201Z,4.40
2017-08-26T10:12:31.490Z,2.63
2017-08-26T10:45:00.468Z,4.07
2017-08-26T10:47:29.057Z,3.73
2017-08-26T10:50:03.190Z,3.90
2017-08-26T10:52:37.322Z,3.70
2017-08-26T10:55:05.954Z,4.37
2017-08-26T10:57:35.880Z,4.43
2017-08-26T11:00:08.722Z,6.50
2017-08-26T11:02:38.265Z,2.40
2017-08-26T11:07:53.174Z,3.07
2017-08-26T11:12:54.505Z,3.20
2017-08-26T11:15:26.425Z,4.67
2017-08-26T11:17:55.657Z,4.60
2017-08-26T11:20:29.013Z,3.17
2017-08-26T11:22:57.747Z,3.87
2017-08-26T11:25:26.865Z,3.00
2017-08-26T11:27:55.894Z,5.00
2017-08-26T11:30:24.274Z,3.40
2017-08-26T11:32:52.440Z,3.17
2017-08-26T11:35:21.442Z,3.00
2017-08-26T11:37:49.705Z,3.80
2017-08-26T11:40:17.815Z,6.53
2017-08-26T11:42:45.938Z,4.57
2017-08-26T11:47:56.458Z,3.63
2017-08-26T11:50:24.962Z,3.10
2017-08-26T11:52:53.159Z,3.57
2017-08-26T11:55:24.476Z,3.53
2017-08-26T11:57:52.917Z,3.60
2017-08-26T12:00:29.207Z,3.40
2017-08-26T12:02:57.690Z,3.30
2017-08-26T12:05:26.750Z,3.40
2017-08-26T12:07:55.072Z,3.83
2017-08-26T12:10:27.465Z,3.23
2017-08-26T12:12:56.947Z,4.00
2017-08-26T12:15:28.487Z,4.00
2017-08-26T12:17:57.888Z,4.33
2017-08-26T12:26:23.351Z,3.80
2017-08-26T12:28:54.452Z,3.60
2017-08-26T12:31:26.655Z,3.40
2017-08-26T12:33:56.931Z,4.50
2017-08-26T12:36:25.487Z,4.17
2017-08-26T12:38:56.339Z,3.80
2017-08-26T12:41:27.833Z,3.70
2017-08-26T12:43:56.458Z,3.83
2017-08-26T12:46:27.585Z,3.20
2017-08-26T12:48:57.196Z,3.37
2017-08-26T12:51:27.831Z,3.77
2017-08-26T12:53:59.213Z,3.17
2017-08-26T12:56:27.414Z,4.10
2017-08-26T12:58:57.127Z,4.50
2017-08-26T13:01:26.497Z,4.10
2017-08-26T13:03:56.496Z,3.47
2017-08-26T13:06:29.257Z,4.07
2017-08-26T13:11:55.846Z,3.50
2017-08-26T13:14:27.941Z,5.90
2017-08-26T13:16:58.506Z,3.93
2017-08-26T13:29:01.749Z,3.57
2017-08-26T13:31:32.851Z,3.30
2017-08-26T13:36:57.187Z,3.70
2017-08-26T13:39:26.906Z,8.03
2017-08-26T13:42:00.425Z,3.40
2017-08-26T13:47:26.627Z,2.90
2017-08-26T13:49:56.968Z,4.90
2017-08-26T13:52:27.212Z,3.20
2017-08-26T13:54:56.407Z,3.57
2017-08-26T13:57:26.456Z,3.73
2017-08-26T13:59:56.827Z,2.70
2017-08-26T14:02:25.010Z,6.07
2017-08-26T14:04:53.169Z,3.10
2017-08-26T14:07:22.704Z,3.00
2017-08-26T14:09:50.964Z,4.00
2017-08-26T14:12:34.842Z,3.43
2017-08-26T14:15:25.094Z,3.17
2017-08-26T14:17:53.258Z,3.00
2017-08-26T14:20:21.410Z,3.27
2017-08-26T14:22:49.752Z,4.30
2017-08-26T14:25:39.382Z,3.00
2017-08-26T14:28:08.256Z,3.57
2017-08-26T14:30:37.484Z,4.30
2017-08-26T14:33:05.722Z,3.40
2017-08-26T14:35:33.961Z,2.87
2017-08-26T14:38:04.694Z,6.93
2017-08-26T14:40:33.100Z,4.27
2017-08-26T14:43:01.496Z,2.97
2017-08-26T14:45:49.689Z,4.93
2017-08-26T14:48:18.876Z,3.70
2017-08-26T14:50:55.699Z,4.10
2017-08-26T14:53:26.259Z,3.50
2017-08-26T14:55:54.564Z,3.60
2017-08-26T14:58:24.804Z,3.20
2017-08-26T15:00:54.567Z,5.40
2017-08-26T15:03:23.135Z,3.57
2017-08-26T15:09:01.418Z,3.93
2017-08-26T15:11:31.583Z,3.83
2017-08-26T15:26:15.188Z,3.57
2017-08-26T15:35:24.815Z,3.93
2017-08-26T15:37:59.940Z,9.60
2017-08-26T15:43:27.833Z,3.57
2017-08-26T15:46:02.471Z,3.93
2017-08-26T15:48:57.433Z,4.00
2017-08-26T15:54:30.100Z,3.53
2017-08-26T15:57:02.417Z,3.50
2017-08-26T16:05:30.116Z,5.40
2017-08-26T16:07:58.276Z,5.07
2017-08-26T16:10:29.745Z,3.70
2017-08-26T16:13:00.001Z,4.60
2017-08-26T16:15:30.943Z,4.23
2017-08-26T16:18:00.093Z,3.70
2017-08-26T16:20:28.240Z,3.90
2017-08-26T16:22:57.444Z,3.20
2017-08-26T16:25:36.548Z,4.00
2017-08-26T16:28:04.880Z,5.27
2017-08-26T16:30:34.447Z,3.57
2017-08-26T16:33:08.467Z,4.30
2017-08-26T16:35:37.052Z,5.53
2017-08-26T16:38:11.970Z,4.13
2017-08-26T16:43:35.639Z,3.77
2017-08-26T16:46:04.197Z,3.93
2017-08-26T16:48:32.698Z,4.43
2017-08-26T16:51:01.074Z,4.73
2017-08-26T16:53:29.240Z,4.40
2017-08-26T16:56:00.065Z,3.53
2017-08-26T16:58:30.702Z,3.50
2017-08-26T17:01:04.812Z,4.20
2017-08-26T17:03:54.998Z,4.40
2017-08-26T17:06:23.338Z,3.77
2017-08-26T17:08:51.463Z,4.47
2017-08-26T17:11:19.688Z,5.40
2017-08-26T17:13:52.128Z,4.00
2017-08-26T17:16:23.856Z,4.70
2017-08-26T17:18:53.205Z,4.10
2017-08-26T17:21:22.101Z,4.27
2017-08-26T17:23:50.522Z,3.50
2017-08-26T17:26:21.395Z,5.20
2017-08-26T17:29:24.233Z,4.50
2017-08-26T17:32:00.542Z,5.00
2017-08-26T17:34:29.864Z,4.20
2017-08-26T17:36:58.138Z,5.10
2017-08-26T17:39:30.704Z,5.93
2017-08-26T17:42:11.304Z,6.63
2017-08-26T17:44:39.564Z,5.10
2017-08-26T17:47:07.953Z,6.93
2017-08-26T17:49:36.198Z,4.07
2017-08-26T17:52:24.566Z,4.47
2017-08-26T17:54:52.989Z,5.70
2017-08-26T17:57:21.175Z,4.10
2017-08-26T17:59:49.494Z,4.70
2017-08-26T18:02:17.770Z,8.30
2017-08-26T18:04:56.099Z,4.10
2017-08-26T18:07:24.223Z,4.30
2017-08-26T18:09:52.467Z,4.30
2017-08-26T18:12:43.872Z,5.73
2017-08-26T18:15:17.617Z,4.63
2017-08-26T18:17:45.867Z,4.77
2017-08-26T18:20:15.009Z,4.93
2017-08-26T18:22:43.182Z,5.03
2017-08-26T18:25:11.388Z,4.90
2017-08-26T18:27:40.690Z,5.37
2017-08-26T18:30:09.281Z,5.47
2017-08-26T18:32:38.362Z,5.17
2017-08-26T18:35:10.673Z,5.93
2017-08-26T18:40:36.639Z,5.30
2017-08-26T18:43:10.385Z,5.23
2017-08-26T18:48:19.311Z,5.70
2017-08-26T18:51:02.211Z,5.37
2017-08-26T18:59:33.537Z,4.80
2017-08-26T19:02:03.867Z,5.53
2017-08-26T19:04:33.620Z,6.67
2017-08-26T19:07:04.219Z,6.27
2017-08-26T19:16:31.271Z,7.70
2017-08-26T19:21:53.238Z,5.40
2017-08-26T19:27:08.339Z,6.00
2017-08-26T19:29:49.801Z,5.67
2017-08-26T19:32:23.461Z,7.57
2017-08-26T19:44:01.851Z,7.07
2017-08-26T19:52:43.171Z,8.23
2017-08-26T21:35:28.789Z,7.23
2017-08-26T21:41:16.114Z,7.80
2017-08-26T21:43:44.448Z,6.70
2017-08-26T21:46:21.935Z,7.60
2017-08-26T21:48:53.637Z,7.20
2017-08-26T21:51:27.716Z,7.23
2017-08-26T21:53:58.062Z,6.50
2017-08-26T21:56:34.567Z,6.73
2017-08-26T22:02:09.386Z,6.23
2017-08-26T22:09:30.748Z,6.07
2017-08-26T22:11:59.092Z,6.90
2017-08-26T22:14:28.093Z,7.60
2017-08-26T22:16:57.975Z,7.23
2017-08-26T22:19:26.883Z,7.57
2017-08-26T22:21:58.063Z,6.97
2017-08-26T22:24:27.002Z,5.83
2017-08-26T22:26:57.249Z,7.60
2017-08-26T22:29:26.369Z,10.13
2017-08-26T22:31:54.701Z,7.43
2017-08-26T22:34:22.891Z,7.37
2017-08-26T22:37:02.180Z,8.30
2017-08-26T22:39:30.342Z,6.77
2017-08-26T22:41:58.519Z,8.20
2017-08-26T22:47:21.848Z,7.03
2017-08-26T22:49:50.186Z,9.03
2017-08-26T22:52:18.465Z,8.67
2017-08-26T22:54:49.092Z,11.70
2017-08-26T22:57:19.077Z,9.90
2017-08-26T22:59:48.107Z,8.50
2017-08-26T23:02:16.447Z,9.43
2017-08-26T23:04:44.608Z,8.53
2017-08-26T23:07:12.883Z,10.13
2017-08-26T23:09:57.619Z,9.17
2017-08-26T23:12:26.322Z,9.03
2017-08-26T23:15:02.010Z,10.90
2017-08-26T23:17:34.981Z,9.80
2017-08-26T23:20:13.423Z,9.50
2017-08-26T23:22:41.598Z,8.83
2017-08-26T23:25:09.755Z,11.13
2017-08-26T23:27:37.959Z,9.83
2017-08-26T23:30:07.012Z,10.70
2017-08-26T23:32:35.310Z,10.00
2017-08-26T23:38:00.586Z,10.80
2017-08-26T23:43:37.573Z,10.30
2017-08-26T23:46:09.241Z,9.83
2017-08-26T23:48:39.571Z,9.00
2017-08-26T23:51:08.292Z,11.50
2017-08-26T23:53:36.446Z,12.13
2017-08-26T23:56:08.530Z,10.03
2017-08-26T23:58:40.095Z,10.03
